createdAt,value
2019-02-25T00:00:52.992Z,103710.73
2019-02-25T00:03:22.173Z,103708.27
2019-02-25T00:06:03.414Z,103708.27
2019-02-25T00:08:33.402Z,103704.91
2019-02-25T00:11:02.422Z,103705.15
2019-02-25T00:13:31.579Z,103700.38
2019-02-25T00:16:00.653Z,103705.48
2019-02-25T00:18:29.852Z,103691.20
2019-02-25T00:20:58.916Z,103692.83
2019-02-25T00:23:28.020Z,103685.40
2019-02-25T00:25:57.179Z,103677.95
2019-02-25T00:28:26.418Z,103687.98
2019-02-25T00:30:56.533Z,103687.98
2019-02-25T00:33:25.696Z,103683.67
2019-02-25T00:35:54.813Z,103677.23
2019-02-25T00:38:27.296Z,103678.14
2019-02-25T00:40:56.368Z,103680.27
2019-02-25T00:43:25.534Z,103674.92
2019-02-25T00:45:54.803Z,103680.80
2019-02-25T00:48:23.877Z,103682.05
2019-02-25T00:50:52.991Z,103675.08
2019-02-25T00:53:22.150Z,103686.41
2019-02-25T00:55:51.245Z,103685.47
2019-02-25T00:58:20.300Z,103683.62
2019-02-25T01:00:49.404Z,103688.68
2019-02-25T01:03:18.433Z,103699.69
2019-02-25T01:05:47.664Z,103699.53
2019-02-25T01:08:16.838Z,103697.59
2019-02-25T01:10:46.036Z,103680.60
2019-02-25T01:13:15.640Z,103693.39
2019-02-25T01:15:44.718Z,103689.73
2019-02-25T01:18:15.255Z,103684.59
2019-02-25T01:20:44.412Z,103684.59
2019-02-25T01:23:15.708Z,103674.66
2019-02-25T01:25:44.782Z,103672.50
2019-02-25T01:28:14.194Z,103673.63
2019-02-25T01:30:43.307Z,103675.20
2019-02-25T01:33:12.371Z,103672.06
2019-02-25T01:35:41.546Z,103669.75
2019-02-25T01:38:10.777Z,103666.78
2019-02-25T01:40:40.979Z,103663.66
2019-02-25T01:43:10.000Z,103660.98
2019-02-25T01:45:39.046Z,103650.70
2019-02-25T01:48:08.069Z,103650.70
2019-02-25T01:50:37.249Z,103644.89
2019-02-25T01:53:06.467Z,103641.47
2019-02-25T01:55:35.608Z,103632.66
2019-02-25T01:58:05.717Z,103628.78
2019-02-25T02:00:36.897Z,103636.67
2019-02-25T02:03:06.116Z,103631.61
2019-02-25T02:05:35.254Z,103637.78
2019-02-25T02:08:04.809Z,103633.18
2019-02-25T02:10:34.034Z,103633.91
2019-02-25T02:13:03.201Z,103628.84
2019-02-25T02:15:32.559Z,103636.83
2019-02-25T02:18:02.102Z,103634.61
2019-02-25T02:20:34.865Z,103633.27
2019-02-25T02:23:04.261Z,103633.27
2019-02-25T02:25:36.253Z,103620.39
2019-02-25T02:28:06.639Z,103618.42
2019-02-25T02:30:35.847Z,103618.42
2019-02-25T02:33:05.109Z,103616.05
2019-02-25T02:35:35.930Z,103613.46
2019-02-25T02:38:13.357Z,103621.55
2019-02-25T02:40:42.526Z,103616.93
2019-02-25T02:43:13.132Z,103616.28
2019-02-25T02:46:20.221Z,103608.30
2019-02-25T02:48:56.136Z,103613.14
2019-02-25T02:51:27.560Z,103615.41
2019-02-25T02:53:59.011Z,103621.12
2019-02-25T02:56:31.156Z,103619.19
2019-02-25T02:59:00.268Z,103619.19
2019-02-25T03:01:29.490Z,103611.24
2019-02-25T03:03:58.562Z,103615.08
2019-02-25T03:06:27.594Z,103606.70
2019-02-25T03:08:56.642Z,103607.92
2019-02-25T03:11:25.721Z,103608.56
2019-02-25T03:13:54.833Z,103609.50
2019-02-25T03:16:23.860Z,103604.91
2019-02-25T03:18:52.905Z,103599.69
2019-02-25T03:21:21.919Z,103599.69
2019-02-25T03:23:51.275Z,103598.84
2019-02-25T03:26:22.263Z,103596.29
2019-02-25T03:28:51.502Z,103601.22
2019-02-25T03:31:20.630Z,103605.24
2019-02-25T03:33:53.058Z,103605.24
2019-02-25T03:36:22.285Z,103602.45
2019-02-25T03:38:52.856Z,103600.66
2019-02-25T03:41:21.884Z,103606.45
2019-02-25T03:43:54.838Z,103610.49
2019-02-25T03:46:23.890Z,103610.49
2019-02-25T03:48:54.201Z,103616.91
2019-02-25T03:51:23.264Z,103619.44
2019-02-25T03:53:53.671Z,103626.12
2019-02-25T03:56:25.075Z,103622.58
2019-02-25T03:58:54.222Z,103616.97
2019-02-25T04:01:23.451Z,103622.66
2019-02-25T04:03:52.635Z,103623.92
2019-02-25T04:06:23.473Z,103627.22
2019-02-25T04:08:53.783Z,103640.27
2019-02-25T04:11:22.982Z,103641.55
2019-02-25T04:13:52.051Z,103656.30
2019-02-25T04:16:21.241Z,103660.47
2019-02-25T04:18:50.290Z,103659.03
2019-02-25T04:21:19.543Z,103660.47
2019-02-25T04:23:48.635Z,103660.75
2019-02-25T04:26:17.646Z,103655.48
2019-02-25T04:28:46.723Z,103655.48
2019-02-25T04:31:16.138Z,103656.67
2019-02-25T04:33:45.221Z,103651.14
2019-02-25T04:36:14.662Z,103645.54
2019-02-25T04:38:44.012Z,103650.52
2019-02-25T04:41:14.503Z,103643.60
2019-02-25T04:43:43.877Z,103634.48
2019-02-25T04:46:16.026Z,103634.00
2019-02-25T04:48:44.017Z,103629.66
2019-02-25T04:51:14.267Z,103629.66
2019-02-25T04:53:45.364Z,103621.50
2019-02-25T04:56:14.405Z,103622.30
2019-02-25T04:58:43.518Z,103624.37
2019-02-25T05:01:13.080Z,103621.20
2019-02-25T05:03:42.089Z,103620.33
2019-02-25T05:06:14.518Z,103620.33
2019-02-25T05:08:43.877Z,103611.42
2019-02-25T05:11:16.627Z,103598.20
2019-02-25T05:13:46.586Z,103593.20
2019-02-25T05:16:22.811Z,103589.03
2019-02-25T05:19:14.521Z,103592.56
2019-02-25T05:21:42.214Z,103598.13
2019-02-25T05:24:26.345Z,103596.41
2019-02-25T05:26:55.614Z,103589.34
2019-02-25T05:29:24.751Z,103594.22
2019-02-25T05:31:54.084Z,103595.94
2019-02-25T05:34:23.503Z,103597.59
2019-02-25T05:36:52.579Z,103597.20
2019-02-25T05:39:30.688Z,103590.93
2019-02-25T05:41:59.744Z,103600.31
2019-02-25T05:44:28.774Z,103598.48
2019-02-25T05:46:59.927Z,103606.17
2019-02-25T05:49:31.737Z,103620.19
2019-02-25T05:52:00.738Z,103628.91
2019-02-25T05:54:30.057Z,103635.11
2019-02-25T05:57:15.318Z,103638.79
2019-02-25T05:59:45.189Z,103642.38
2019-02-25T06:02:14.588Z,103646.45
2019-02-25T06:04:55.562Z,103645.42
2019-02-25T06:07:22.166Z,103640.37
2019-02-25T06:09:54.721Z,103621.27
2019-02-25T06:12:26.063Z,103632.97
2019-02-25T06:14:55.123Z,103636.80
2019-02-25T06:17:24.217Z,103647.95
2019-02-25T06:19:53.248Z,103656.60
2019-02-25T06:22:22.327Z,103649.84
2019-02-25T06:24:51.874Z,103649.83
2019-02-25T06:27:30.310Z,103649.83
2019-02-25T06:29:51.689Z,103669.30
2019-02-25T06:32:20.695Z,103673.63
2019-02-25T06:34:49.722Z,103683.04
2019-02-25T06:37:31.291Z,103682.23
2019-02-25T06:40:03.022Z,103688.97
2019-02-25T06:42:36.074Z,103695.25
2019-02-25T06:45:11.589Z,103699.95
2019-02-25T06:47:40.675Z,103711.53
2019-02-25T06:50:10.770Z,103710.90
2019-02-25T06:52:39.877Z,103709.01
2019-02-25T06:55:13.293Z,103714.66
2019-02-25T06:57:54.428Z,103709.81
2019-02-25T07:00:23.794Z,103713.56
2019-02-25T07:02:53.103Z,103715.11
2019-02-25T07:05:43.008Z,103706.14
2019-02-25T07:08:19.004Z,103703.65
2019-02-25T07:10:58.991Z,103700.50
2019-02-25T07:13:41.692Z,103712.05
2019-02-25T07:16:29.795Z,103709.95
2019-02-25T07:19:20.605Z,103688.75
2019-02-25T07:22:05.895Z,103701.81
2019-02-25T07:24:52.592Z,103709.52
2019-02-25T07:27:42.033Z,103707.16
2019-02-25T07:30:32.898Z,103713.84
2019-02-25T07:33:26.293Z,103720.39
2019-02-25T07:36:14.787Z,103720.39
2019-02-25T07:38:58.676Z,103724.42
2019-02-25T07:41:45.666Z,103724.42
2019-02-25T07:44:48.689Z,103729.92
2019-02-25T07:47:43.546Z,103732.91
2019-02-25T07:50:31.699Z,103725.58
2019-02-25T07:53:08.879Z,103722.16
2019-02-25T07:55:50.124Z,103720.50
2019-02-25T07:58:24.317Z,103727.17
2019-02-25T08:01:04.994Z,103727.17
2019-02-25T08:03:52.086Z,103740.22
2019-02-25T08:06:28.890Z,103747.48
2019-02-25T08:09:15.813Z,103748.64
2019-02-25T08:12:13.009Z,103746.09
2019-02-25T08:15:03.780Z,103758.11
2019-02-25T08:18:05.115Z,103752.48
2019-02-25T08:20:59.969Z,103761.38
2019-02-25T08:23:49.697Z,103763.39
2019-02-25T08:26:36.459Z,103760.23
2019-02-25T08:29:23.170Z,103759.23
2019-02-25T08:32:12.139Z,103754.31
2019-02-25T08:35:06.092Z,103754.31
2019-02-25T08:38:22.132Z,103759.34
2019-02-25T08:41:03.139Z,103756.16
2019-02-25T08:43:52.491Z,103764.91
2019-02-25T08:46:40.486Z,103768.03
2019-02-25T08:49:13.415Z,103768.03
2019-02-25T08:51:42.590Z,103761.62
2019-02-25T08:54:13.115Z,103744.46
2019-02-25T08:56:42.310Z,103741.17
2019-02-25T08:59:11.411Z,103739.66
2019-02-25T09:01:40.584Z,103738.12
2019-02-25T09:04:09.743Z,103737.80
2019-02-25T09:06:38.840Z,103745.94
2019-02-25T09:09:09.518Z,103741.34
2019-02-25T09:11:38.690Z,103741.86
2019-02-25T09:14:09.085Z,103741.86
2019-02-25T09:16:38.145Z,103735.92
2019-02-25T09:19:07.403Z,103733.55
2019-02-25T09:21:39.257Z,103733.55
2019-02-25T09:24:08.464Z,103734.52
2019-02-25T09:26:37.843Z,103734.52
2019-02-25T09:29:07.081Z,103733.54
2019-02-25T09:31:36.199Z,103729.78
2019-02-25T09:34:08.135Z,103729.47
2019-02-25T09:36:38.563Z,103724.98
2019-02-25T09:39:17.334Z,103718.90
2019-02-25T09:41:46.613Z,103721.75
2019-02-25T09:44:21.580Z,103714.20
2019-02-25T09:46:50.748Z,103716.62
2019-02-25T09:49:23.471Z,103712.15
2019-02-25T09:51:52.589Z,103708.41
2019-02-25T09:54:23.689Z,103708.41
2019-02-25T09:56:52.874Z,103701.84
2019-02-25T09:59:21.976Z,103699.14
2019-02-25T10:01:51.191Z,103703.54
2019-02-25T10:04:20.549Z,103691.77
2019-02-25T10:06:49.658Z,103693.61
2019-02-25T10:09:18.744Z,103697.50
2019-02-25T10:11:48.775Z,103699.52
2019-02-25T10:14:17.922Z,103698.81
2019-02-25T10:16:46.945Z,103694.78
2019-02-25T10:19:16.042Z,103680.75
2019-02-25T10:21:45.108Z,103681.91
2019-02-25T10:24:14.260Z,103681.72
2019-02-25T10:26:43.342Z,103679.73
2019-02-25T10:29:12.873Z,103677.22
2019-02-25T10:31:43.700Z,103677.28
2019-02-25T10:34:13.038Z,103686.69
2019-02-25T10:36:46.008Z,103683.38
2019-02-25T10:39:16.210Z,103670.93
2019-02-25T10:41:45.866Z,103679.35
2019-02-25T10:44:17.419Z,103681.84
2019-02-25T10:46:49.609Z,103671.56
2019-02-25T10:49:22.229Z,103671.56
2019-02-25T10:51:51.540Z,103676.97
2019-02-25T10:54:21.246Z,103679.67
2019-02-25T10:56:55.842Z,103674.48
2019-02-25T10:59:25.667Z,103673.93
2019-02-25T11:01:54.833Z,103673.47
2019-02-25T11:04:26.092Z,103673.47
2019-02-25T11:06:58.894Z,103668.75
2019-02-25T11:09:50.358Z,103673.80
2019-02-25T11:12:21.472Z,103665.36
2019-02-25T11:14:50.663Z,103665.36
2019-02-25T11:17:20.837Z,103653.44
2019-02-25T11:19:50.810Z,103655.48
2019-02-25T11:22:21.705Z,103656.99
2019-02-25T11:24:51.860Z,103655.86
2019-02-25T11:27:23.057Z,103650.54
2019-02-25T11:29:52.241Z,103653.19
2019-02-25T11:32:24.415Z,103647.47
2019-02-25T11:34:56.584Z,103647.47
2019-02-25T11:37:28.305Z,103654.38
2019-02-25T11:39:59.321Z,103656.55
2019-02-25T11:42:29.386Z,103654.49
2019-02-25T11:44:59.859Z,103652.71
2019-02-25T11:47:31.056Z,103637.59
2019-02-25T11:50:00.348Z,103637.73
2019-02-25T11:52:29.456Z,103633.28
2019-02-25T11:54:58.551Z,103629.66
2019-02-25T11:57:27.755Z,103627.72
2019-02-25T11:59:56.910Z,103619.61
2019-02-25T12:02:26.218Z,103611.73
2019-02-25T12:04:55.384Z,103597.22
2019-02-25T12:07:24.482Z,103599.53
2019-02-25T12:09:53.552Z,103593.47
2019-02-25T12:12:25.910Z,103597.09
2019-02-25T12:14:55.042Z,103592.84
2019-02-25T12:17:24.081Z,103593.30
2019-02-25T12:19:53.256Z,103588.42
2019-02-25T12:22:22.410Z,103588.42
2019-02-25T12:24:51.489Z,103586.91
2019-02-25T12:27:22.204Z,103590.48
2019-02-25T12:29:51.273Z,103587.02
2019-02-25T12:32:20.455Z,103579.52
2019-02-25T12:34:49.479Z,103577.59
2019-02-25T12:37:18.580Z,103571.53
2019-02-25T12:39:47.616Z,103576.52
2019-02-25T12:42:16.802Z,103580.22
2019-02-25T12:44:45.841Z,103579.31
2019-02-25T12:47:15.171Z,103580.37
2019-02-25T12:49:44.233Z,103577.62
2019-02-25T12:52:14.752Z,103584.47
2019-02-25T12:54:44.108Z,103575.94
2019-02-25T12:57:13.134Z,103572.32
2019-02-25T12:59:43.411Z,103570.24
2019-02-25T13:02:12.411Z,103570.24
2019-02-25T13:04:41.525Z,103572.98
2019-02-25T13:07:10.672Z,103570.00
2019-02-25T13:09:40.015Z,103568.17
2019-02-25T13:12:09.237Z,103563.88
2019-02-25T13:14:38.250Z,103559.27
2019-02-25T13:17:07.292Z,103553.98
2019-02-25T13:19:36.376Z,103558.44
2019-02-25T13:22:05.678Z,103548.37
2019-02-25T13:24:35.246Z,103540.12
2019-02-25T13:27:06.416Z,103543.77
2019-02-25T13:29:36.471Z,103545.48
2019-02-25T13:32:05.716Z,103549.40
2019-02-25T13:34:34.751Z,103541.05
2019-02-25T13:37:04.295Z,103551.86
2019-02-25T13:39:34.527Z,103548.91
2019-02-25T13:42:03.628Z,103548.56
2019-02-25T13:44:33.043Z,103547.34
2019-02-25T13:47:02.233Z,103547.27
2019-02-25T13:49:31.287Z,103541.01
2019-02-25T13:52:00.465Z,103537.89
2019-02-25T13:54:29.849Z,103538.91
2019-02-25T13:56:58.984Z,103534.89
2019-02-25T13:59:28.403Z,103534.89
2019-02-25T14:01:57.567Z,103529.14
2019-02-25T14:04:26.807Z,103530.64
2019-02-25T14:06:55.865Z,103523.19
2019-02-25T14:09:25.077Z,103513.55
2019-02-25T14:11:54.760Z,103521.60
2019-02-25T14:14:23.851Z,103529.02
2019-02-25T14:16:52.951Z,103517.16
2019-02-25T14:19:23.032Z,103523.80
2019-02-25T14:21:53.190Z,103526.59
2019-02-25T14:24:22.368Z,103527.13
2019-02-25T14:26:51.658Z,103518.15
2019-02-25T14:29:21.599Z,103521.65
2019-02-25T14:31:51.717Z,103528.95
2019-02-25T14:34:20.876Z,103522.67
2019-02-25T14:36:52.482Z,103524.31
2019-02-25T14:39:27.627Z,103520.55
2019-02-25T14:41:56.944Z,103525.67
2019-02-25T14:44:30.094Z,103525.67
2019-02-25T14:46:58.703Z,103530.70
2019-02-25T14:49:28.222Z,103520.47
2019-02-25T14:51:58.807Z,103521.19
2019-02-25T14:54:29.343Z,103522.81
2019-02-25T14:56:58.840Z,103518.80
2019-02-25T14:59:27.966Z,103524.47
2019-02-25T15:01:59.220Z,103515.86
2019-02-25T15:04:29.332Z,103515.86
2019-02-25T15:06:58.408Z,103516.64
2019-02-25T15:09:28.337Z,103518.89
2019-02-25T15:11:59.733Z,103518.22
2019-02-25T15:14:29.825Z,103516.14
2019-02-25T15:16:59.025Z,103516.70
2019-02-25T15:19:34.499Z,103515.39
2019-02-25T15:22:04.897Z,103525.09
2019-02-25T15:24:34.006Z,103515.67
2019-02-25T15:27:04.505Z,103516.80
2019-02-25T15:29:34.445Z,103502.78
2019-02-25T15:32:09.065Z,103520.50
2019-02-25T15:34:38.099Z,103522.77
2019-02-25T15:37:09.351Z,103518.20
2019-02-25T15:39:42.043Z,103518.20
2019-02-25T15:42:12.959Z,103528.45
2019-02-25T15:44:44.095Z,103532.13
2019-02-25T15:47:14.769Z,103526.64
2019-02-25T15:49:43.836Z,103526.17
2019-02-25T15:52:18.387Z,103526.17
2019-02-25T15:54:46.377Z,103536.34
2019-02-25T15:57:15.597Z,103527.27
2019-02-25T15:59:47.185Z,103523.02
2019-02-25T16:02:16.504Z,103527.88
2019-02-25T16:04:47.614Z,103525.80
2019-02-25T16:07:16.805Z,103526.55
2019-02-25T16:09:46.185Z,103525.66
2019-02-25T16:12:16.157Z,103520.09
2019-02-25T16:14:47.060Z,103521.53
2019-02-25T16:17:16.878Z,103518.20
2019-02-25T16:19:47.819Z,103521.63
2019-02-25T16:22:16.980Z,103520.25
2019-02-25T16:24:47.536Z,103521.92
2019-02-25T16:27:18.551Z,103515.84
2019-02-25T16:29:48.900Z,103517.23
2019-02-25T16:32:19.267Z,103514.36
2019-02-25T16:34:48.810Z,103516.66
2019-02-25T16:37:19.821Z,103509.42
2019-02-25T16:39:48.795Z,103510.13
2019-02-25T16:42:20.118Z,103507.63
2019-02-25T16:44:49.339Z,103510.20
2019-02-25T16:47:31.903Z,103506.97
2019-02-25T16:49:50.350Z,103513.32
2019-02-25T16:52:22.217Z,103513.32
2019-02-25T16:54:51.153Z,103513.12
2019-02-25T16:57:21.260Z,103514.14
2019-02-25T16:59:53.540Z,103519.58
2019-02-25T17:02:23.631Z,103519.03
2019-02-25T17:04:52.781Z,103522.38
2019-02-25T17:07:22.716Z,103522.38
2019-02-25T17:09:51.790Z,103524.70
2019-02-25T17:12:21.569Z,103531.59
2019-02-25T17:14:53.368Z,103529.16
2019-02-25T17:17:24.613Z,103528.43
2019-02-25T17:19:54.055Z,103525.93
2019-02-25T17:22:23.438Z,103530.63
2019-02-25T17:24:54.247Z,103535.64
2019-02-25T17:27:23.851Z,103539.55
2019-02-25T17:29:55.548Z,103538.32
2019-02-25T17:32:25.863Z,103540.95
2019-02-25T17:34:56.535Z,103534.59
2019-02-25T17:37:26.723Z,103537.84
2019-02-25T17:39:58.449Z,103538.05
2019-02-25T17:42:27.409Z,103538.05
2019-02-25T17:44:57.743Z,103543.92
2019-02-25T17:47:30.574Z,103541.91
2019-02-25T17:50:03.562Z,103543.95
2019-02-25T17:52:50.486Z,103547.16
2019-02-25T17:55:21.919Z,103543.89
2019-02-25T17:57:52.074Z,103543.89
2019-02-25T18:00:45.608Z,103544.00
2019-02-25T18:03:17.195Z,103538.40
2019-02-25T18:05:46.097Z,103536.31
2019-02-25T18:08:16.608Z,103526.92
2019-02-25T18:10:46.044Z,103526.92
2019-02-25T18:13:16.767Z,103526.92
2019-02-25T18:15:47.680Z,103533.09
2019-02-25T18:18:19.622Z,103521.54
2019-02-25T18:20:48.067Z,103530.09
2019-02-25T18:23:17.206Z,103531.08
2019-02-25T18:25:46.561Z,103529.38
2019-02-25T18:28:17.527Z,103522.55
2019-02-25T18:30:46.937Z,103513.72
2019-02-25T18:33:17.406Z,103514.09
2019-02-25T18:35:47.540Z,103510.85
2019-02-25T18:38:29.554Z,103510.85
2019-02-25T18:41:00.383Z,103517.52
2019-02-25T18:43:30.533Z,103516.75
2019-02-25T18:46:02.285Z,103511.97
2019-02-25T18:48:32.415Z,103513.09
2019-02-25T18:51:01.805Z,103508.60
2019-02-25T18:53:32.628Z,103513.16
2019-02-25T18:56:02.122Z,103512.61
2019-02-25T18:58:35.447Z,103519.70
2019-02-25T19:01:06.927Z,103522.92
2019-02-25T19:03:37.122Z,103528.11
2019-02-25T19:06:07.676Z,103523.75
2019-02-25T19:08:36.941Z,103514.15
2019-02-25T19:11:08.541Z,103509.62
2019-02-25T19:13:38.168Z,103514.10
2019-02-25T19:16:08.015Z,103514.73
2019-02-25T19:18:40.798Z,103516.67
2019-02-25T19:21:10.967Z,103523.88
2019-02-25T19:23:41.842Z,103517.77
2019-02-25T19:26:12.937Z,103512.86
2019-02-25T19:28:45.931Z,103507.78
2019-02-25T19:31:17.061Z,103513.83
2019-02-25T19:33:46.192Z,103510.52
2019-02-25T19:36:16.557Z,103509.20
2019-02-25T19:38:48.033Z,103438.36
2019-02-25T19:41:17.789Z,103503.30
2019-02-25T19:43:48.528Z,103503.30
2019-02-25T19:46:17.859Z,103504.04
2019-02-25T19:48:47.970Z,103500.34
2019-02-25T19:51:18.953Z,103498.52
2019-02-25T19:53:50.292Z,103498.52
2019-02-25T19:56:19.503Z,103488.05
2019-02-25T19:58:48.750Z,103490.20
2019-02-25T20:01:17.891Z,103498.21
2019-02-25T20:03:47.729Z,103495.56
2019-02-25T20:06:19.147Z,103497.92
2019-02-25T20:08:48.765Z,103497.92
2019-02-25T20:11:20.591Z,103494.80
2019-02-25T20:13:49.755Z,103492.39
2019-02-25T20:16:20.490Z,103495.66
2019-02-25T20:18:50.038Z,103493.70
2019-02-25T20:21:20.066Z,103493.37
2019-02-25T20:23:51.812Z,103492.64
2019-02-25T20:26:22.341Z,103492.64
2019-02-25T20:28:52.053Z,103495.62
2019-02-25T20:31:21.321Z,103486.36
2019-02-25T20:33:52.510Z,103494.44
2019-02-25T20:36:30.543Z,103493.52
2019-02-25T20:38:59.546Z,103493.52
2019-02-25T20:41:29.353Z,103493.43
2019-02-25T20:44:01.070Z,103492.64
2019-02-25T20:46:31.294Z,103485.70
2019-02-25T20:49:02.181Z,103488.91
2019-02-25T20:51:33.636Z,103488.91
2019-02-25T20:54:02.999Z,103488.07
2019-02-25T20:56:33.285Z,103482.23
2019-02-25T20:59:06.157Z,103488.80
2019-02-25T21:01:39.543Z,103485.03
2019-02-25T21:04:08.792Z,103485.62
2019-02-25T21:06:39.708Z,103490.77
2019-02-25T21:09:11.188Z,103485.69
2019-02-25T21:11:42.252Z,103485.69
2019-02-25T21:14:11.433Z,103484.16
2019-02-25T21:16:40.560Z,103482.41
2019-02-25T21:19:10.829Z,103478.16
2019-02-25T21:21:40.762Z,103481.98
2019-02-25T21:24:13.593Z,103482.43
2019-02-25T21:26:42.764Z,103482.43
2019-02-25T21:29:13.547Z,103471.91
2019-02-25T21:31:45.275Z,103468.97
2019-02-25T21:34:17.729Z,103470.63
2019-02-25T21:36:54.640Z,103480.02
2019-02-25T21:39:24.019Z,103478.33
2019-02-25T21:41:53.223Z,103474.14
2019-02-25T21:44:24.249Z,103478.01
2019-02-25T21:46:56.265Z,103483.13
2019-02-25T21:49:29.218Z,103475.94
2019-02-25T21:51:57.666Z,103479.33
2019-02-25T21:54:29.161Z,103467.91
2019-02-25T21:57:01.041Z,103470.05
2019-02-25T21:59:32.377Z,103470.05
2019-02-25T22:02:03.743Z,103468.72
2019-02-25T22:04:33.172Z,103466.17
2019-02-25T22:07:02.651Z,103467.91
2019-02-25T22:09:37.782Z,103468.77
2019-02-25T22:12:02.817Z,103468.77
2019-02-25T22:14:32.752Z,103459.88
2019-02-25T22:17:02.009Z,103456.09
2019-02-25T22:19:32.498Z,103456.49
2019-02-25T22:22:04.816Z,103456.91
2019-02-25T22:24:36.143Z,103451.42
2019-02-25T22:27:07.878Z,103452.70
2019-02-25T22:29:38.546Z,103459.05
2019-02-25T22:32:14.125Z,103452.27
2019-02-25T22:34:43.155Z,103457.35
2019-02-25T22:37:16.411Z,103449.30
2019-02-25T22:39:43.904Z,103442.09
2019-02-25T22:42:16.388Z,103448.45
2019-02-25T22:44:47.472Z,103445.08
2019-02-25T22:47:18.270Z,103445.91
2019-02-25T22:49:48.517Z,103448.02
2019-02-25T22:52:21.892Z,103445.45
2019-02-25T22:54:50.018Z,103451.77
2019-02-25T22:57:20.841Z,103452.55
2019-02-25T22:59:51.093Z,103448.77
2019-02-25T23:02:20.535Z,103448.41
2019-02-25T23:04:56.171Z,103445.83
2019-02-25T23:07:25.064Z,103442.88
2019-02-25T23:09:54.469Z,103445.41
2019-02-25T23:12:24.868Z,103445.41
2019-02-25T23:14:56.042Z,103441.59
2019-02-25T23:17:33.044Z,103441.16
2019-02-25T23:20:02.678Z,103440.76
2019-02-25T23:22:32.408Z,103434.41
2019-02-25T23:25:02.593Z,103433.98
2019-02-25T23:27:32.319Z,103433.98
2019-02-25T23:30:02.454Z,103432.63
2019-02-25T23:32:31.576Z,103431.81
2019-02-25T23:35:00.600Z,103428.00
2019-02-25T23:37:29.633Z,103434.78
2019-02-25T23:40:02.217Z,103429.66
2019-02-25T23:42:33.006Z,103433.90
2019-02-25T23:45:00.412Z,103433.90
2019-02-25T23:47:31.650Z,103436.31
2019-02-25T23:50:01.156Z,103436.31
2019-02-25T23:52:33.660Z,103426.64
2019-02-25T23:55:01.849Z,103424.15
2019-02-25T23:57:32.630Z,103425.38
